sensor_id;sensor_type;location;lat;lon;timestamp;pressure;altitude;pressure_sealevel;temperature;humidity
51999;BME280;38015;50.924;11.598;2023-03-01T00:00:14;100768.77;;;21.87;23.14
51999;BME280;38015;50.924;11.598;2023-03-01T00:02:45;100766.37;;;21.87;23.12
51999;BME280;38015;50.924;11.598;2023-03-01T00:05:15;100766.89;;;21.89;23.09
51999;BME280;38015;50.924;11.598;2023-03-01T00:07:45;100771.32;;;21.84;23.16
51999;BME280;38015;50.924;11.598;2023-03-01T00:10:16;100777.29;;;21.86;23.08
51999;BME280;38015;50.924;11.598;2023-03-01T00:12:46;100782.07;;;21.83;23.17
51999;BME280;38015;50.924;11.598;2023-03-01T00:15:17;100779.81;;;21.78;23.22
51999;BME280;38015;50.924;11.598;2023-03-01T00:17:48;100779.89;;;21.80;23.16
51999;BME280;38015;50.924;11.598;2023-03-01T00:20:18;100778.39;;;21.79;23.16
51999;BME280;38015;50.924;11.598;2023-03-01T00:22:48;100776.72;;;21.81;23.09
51999;BME280;38015;50.924;11.598;2023-03-01T00:25:19;100778.69;;;21.83;23.11
51999;BME280;38015;50.924;11.598;2023-03-01T00:27:49;100773.27;;;21.73;23.19
51999;BME280;38015;50.924;11.598;2023-03-01T00:30:20;100771.85;;;21.83;23.05
51999;BME280;38015;50.924;11.598;2023-03-01T00:32:50;100764.71;;;21.86;23.01
51999;BME280;38015;50.924;11.598;2023-03-01T00:35:21;100761.84;;;21.85;23.00
51999;BME280;38015;50.924;11.598;2023-03-01T00:37:51;100763.16;;;21.83;23.07
51999;BME280;38015;50.924;11.598;2023-03-01T00:40:22;100764.34;;;21.71;23.20
51999;BME280;38015;50.924;11.598;2023-03-01T00:42:52;100762.56;;;21.75;23.17
51999;BME280;38015;50.924;11.598;2023-03-01T00:45:24;100763.53;;;21.83;23.07
51999;BME280;38015;50.924;11.598;2023-03-01T00:47:53;100763.36;;;21.88;22.99
51999;BME280;38015;50.924;11.598;2023-03-01T00:50:24;100757.66;;;21.90;22.92
51999;BME280;38015;50.924;11.598;2023-03-01T00:52:56;100754.83;;;21.70;23.21
51999;BME280;38015;50.924;11.598;2023-03-01T00:55:26;100755.37;;;21.67;23.30
51999;BME280;38015;50.924;11.598;2023-03-01T00:57:56;100757.56;;;21.84;23.03
51999;BME280;38015;50.924;11.598;2023-03-01T01:00:26;100754.27;;;21.82;23.06
51999;BME280;38015;50.924;11.598;2023-03-01T01:02:56;100749.39;;;21.81;23.03
51999;BME280;38015;50.924;11.598;2023-03-01T01:05:27;100748.31;;;21.83;22.97
51999;BME280;38015;50.924;11.598;2023-03-01T01:07:57;100744.81;;;21.82;23.02
51999;BME280;38015;50.924;11.598;2023-03-01T01:10:28;100744.20;;;21.79;23.00
51999;BME280;38015;50.924;11.598;2023-03-01T01:12:58;100744.45;;;21.81;23.01
51999;BME280;38015;50.924;11.598;2023-03-01T01:15:33;100744.26;;;21.79;23.06
51999;BME280;38015;50.924;11.598;2023-03-01T01:17:59;100742.80;;;21.76;23.07
51999;BME280;38015;50.924;11.598;2023-03-01T01:20:30;100741.14;;;21.81;22.99
51999;BME280;38015;50.924;11.598;2023-03-01T01:23:00;100739.89;;;21.79;22.99
51999;BME280;38015;50.924;11.598;2023-03-01T01:25:30;100737.98;;;21.75;23.05
51999;BME280;38015;50.924;11.598;2023-03-01T01:28:03;100730.88;;;21.79;22.95
51999;BME280;38015;50.924;11.598;2023-03-01T01:30:33;100729.59;;;21.74;23.06
51999;BME280;38015;50.924;11.598;2023-03-01T01:33:02;100726.45;;;21.77;22.99
51999;BME280;38015;50.924;11.598;2023-03-01T01:35:32;100721.71;;;21.83;22.87
51999;BME280;38015;50.924;11.598;2023-03-01T01:38:03;100714.15;;;21.76;23.03
51999;BME280;38015;50.924;11.598;2023-03-01T01:40:33;100714.30;;;21.71;23.09
51999;BME280;38015;50.924;11.598;2023-03-01T01:43:13;100711.72;;;21.83;22.87
51999;BME280;38015;50.924;11.598;2023-03-01T01:45:35;100706.54;;;21.86;22.82
51999;BME280;38015;50.924;11.598;2023-03-01T01:48:12;100701.16;;;21.81;22.93
51999;BME280;38015;50.924;11.598;2023-03-01T01:50:36;100698.10;;;21.86;22.85
51999;BME280;38015;50.924;11.598;2023-03-01T01:53:13;100693.66;;;21.78;22.94
51999;BME280;38015;50.924;11.598;2023-03-01T01:55:42;100691.80;;;21.53;23.33
51999;BME280;38015;50.924;11.598;2023-03-01T01:58:09;100681.09;;;21.62;23.19
51999;BME280;38015;50.924;11.598;2023-03-01T02:00:38;100676.92;;;21.73;23.06
51999;BME280;38015;50.924;11.598;2023-03-01T02:03:13;100677.26;;;21.79;22.94
51999;BME280;38015;50.924;11.598;2023-03-01T02:05:44;100679.22;;;21.75;22.97
51999;BME280;38015;50.924;11.598;2023-03-01T02:08:13;100677.22;;;21.81;22.90
51999;BME280;38015;50.924;11.598;2023-03-01T02:10:40;100671.52;;;21.82;22.87
51999;BME280;38015;50.924;11.598;2023-03-01T02:13:10;100671.09;;;21.80;22.88
51999;BME280;38015;50.924;11.598;2023-03-01T02:15:41;100668.23;;;21.80;22.88
51999;BME280;38015;50.924;11.598;2023-03-01T02:18:14;100666.54;;;21.76;22.95
51999;BME280;38015;50.924;11.598;2023-03-01T02:20:51;100668.36;;;21.77;22.91
51999;BME280;38015;50.924;11.598;2023-03-01T02:23:12;100666.47;;;21.78;22.90
51999;BME280;38015;50.924;11.598;2023-03-01T02:25:49;100662.89;;;21.71;22.97
51999;BME280;38015;50.924;11.598;2023-03-01T02:28:23;100660.27;;;21.74;22.94
51999;BME280;38015;50.924;11.598;2023-03-01T02:30:46;100657.76;;;21.74;22.93
51999;BME280;38015;50.924;11.598;2023-03-01T02:33:14;100657.94;;;21.74;22.90
51999;BME280;38015;50.924;11.598;2023-03-01T02:35:45;100663.88;;;21.81;22.80
51999;BME280;38015;50.924;11.598;2023-03-01T02:38:15;100669.35;;;21.77;22.87
51999;BME280;38015;50.924;11.598;2023-03-01T02:40:45;100667.07;;;21.67;23.00
51999;BME280;38015;50.924;11.598;2023-03-01T02:43:18;100660.01;;;21.59;23.11
51999;BME280;38015;50.924;11.598;2023-03-01T02:45:48;100657.32;;;21.75;22.86
51999;BME280;38015;50.924;11.598;2023-03-01T02:48:16;100662.80;;;21.73;22.88
51999;BME280;38015;50.924;11.598;2023-03-01T02:50:55;100668.00;;;21.68;22.97
51999;BME280;38015;50.924;11.598;2023-03-01T02:53:21;100663.62;;;21.82;22.76
51999;BME280;38015;50.924;11.598;2023-03-01T02:55:47;100664.81;;;21.54;23.17
51999;BME280;38015;50.924;11.598;2023-03-01T02:58:18;100666.81;;;21.48;23.25
51999;BME280;38015;50.924;11.598;2023-03-01T03:00:48;100668.74;;;21.59;23.12
51999;BME280;38015;50.924;11.598;2023-03-01T03:03:20;100664.89;;;21.78;22.81
51999;BME280;38015;50.924;11.598;2023-03-01T03:05:51;100662.57;;;21.74;22.85
51999;BME280;38015;50.924;11.598;2023-03-01T03:08:19;100664.92;;;21.75;22.84
51999;BME280;38015;50.924;11.598;2023-03-01T03:10:51;100671.10;;;21.77;22.80
51999;BME280;38015;50.924;11.598;2023-03-01T03:13:21;100672.24;;;21.71;22.88
51999;BME280;38015;50.924;11.598;2023-03-01T03:15:51;100670.35;;;21.70;22.90
51999;BME280;38015;50.924;11.598;2023-03-01T03:18:23;100668.64;;;21.73;22.85
51999;BME280;38015;50.924;11.598;2023-03-01T03:20:53;100668.27;;;21.75;22.81
51999;BME280;38015;50.924;11.598;2023-03-01T03:23:23;100667.20;;;21.76;22.76
51999;BME280;38015;50.924;11.598;2023-03-01T03:25:53;100666.53;;;21.76;22.77
51999;BME280;38015;50.924;11.598;2023-03-01T03:28:24;100664.80;;;21.69;22.87
51999;BME280;38015;50.924;11.598;2023-03-01T03:30:54;100661.16;;;21.73;22.77
51999;BME280;38015;50.924;11.598;2023-03-01T03:33:25;100657.27;;;21.77;22.70
51999;BME280;38015;50.924;11.598;2023-03-01T03:35:55;100658.91;;;21.69;22.81
51999;BME280;38015;50.924;11.598;2023-03-01T03:38:26;100658.27;;;21.70;22.79
51999;BME280;38015;50.924;11.598;2023-03-01T03:41:01;100659.28;;;21.63;22.92
51999;BME280;38015;50.924;11.598;2023-03-01T03:43:28;100659.36;;;21.64;22.88
51999;BME280;38015;50.924;11.598;2023-03-01T03:45:58;100652.02;;;21.69;22.83
51999;BME280;38015;50.924;11.598;2023-03-01T03:48:28;100650.93;;;21.55;23.00
51999;BME280;38015;50.924;11.598;2023-03-01T03:50:59;100649.43;;;21.54;23.02
51999;BME280;38015;50.924;11.598;2023-03-01T03:53:30;100643.80;;;21.66;22.85
51999;BME280;38015;50.924;11.598;2023-03-01T03:55:59;100640.45;;;21.58;22.98
51999;BME280;38015;50.924;11.598;2023-03-01T03:58:30;100630.53;;;21.62;22.91
51999;BME280;38015;50.924;11.598;2023-03-01T04:01:01;100633.68;;;21.50;23.06
51999;BME280;38015;50.924;11.598;2023-03-01T04:03:32;100637.06;;;21.60;22.95
51999;BME280;38015;50.924;11.598;2023-03-01T04:06:03;100634.20;;;21.68;22.80
51999;BME280;38015;50.924;11.598;2023-03-01T04:08:32;100632.58;;;21.72;22.73
51999;BME280;38015;50.924;11.598;2023-03-01T04:11:03;100631.59;;;21.65;22.84
51999;BME280;38015;50.924;11.598;2023-03-01T04:13:32;100635.95;;;21.73;22.72
51999;BME280;38015;50.924;11.598;2023-03-01T04:16:03;100640.76;;;21.73;22.69
51999;BME280;38015;50.924;11.598;2023-03-01T04:18:33;100637.57;;;21.72;22.71
51999;BME280;38015;50.924;11.598;2023-03-01T04:21:04;100633.33;;;21.71;22.71
51999;BME280;38015;50.924;11.598;2023-03-01T04:23:34;100628.60;;;21.66;22.78
51999;BME280;38015;50.924;11.598;2023-03-01T04:26:06;100629.20;;;21.72;22.67
51999;BME280;38015;50.924;11.598;2023-03-01T04:28:37;100626.12;;;21.61;22.80
51999;BME280;38015;50.924;11.598;2023-03-01T04:31:08;100627.80;;;21.67;22.74
51999;BME280;38015;50.924;11.598;2023-03-01T04:33:36;100623.53;;;21.68;22.70
51999;BME280;38015;50.924;11.598;2023-03-01T04:36:06;100624.87;;;21.66;22.72
51999;BME280;38015;50.924;11.598;2023-03-01T04:38:37;100625.34;;;21.65;22.75
51999;BME280;38015;50.924;11.598;2023-03-01T04:41:10;100622.66;;;21.67;22.71
51999;BME280;38015;50.924;11.598;2023-03-01T04:43:37;100620.48;;;21.69;22.65
51999;BME280;38015;50.924;11.598;2023-03-01T04:46:10;100623.83;;;21.65;22.74
51999;BME280;38015;50.924;11.598;2023-03-01T04:48:39;100626.70;;;21.71;22.65
51999;BME280;38015;50.924;11.598;2023-03-01T04:51:09;100625.57;;;21.67;22.68
51999;BME280;38015;50.924;11.598;2023-03-01T04:53:40;100620.45;;;21.62;22.75
51999;BME280;38015;50.924;11.598;2023-03-01T04:56:10;100617.20;;;21.44;23.02
51999;BME280;38015;50.924;11.598;2023-03-01T04:58:41;100613.61;;;21.50;22.94
51999;BME280;38015;50.924;11.598;2023-03-01T05:01:11;100613.17;;;21.48;22.96
51999;BME280;38015;50.924;11.598;2023-03-01T05:03:41;100617.35;;;21.45;23.00
51999;BME280;38015;50.924;11.598;2023-03-01T05:06:11;100617.62;;;21.59;22.79
51999;BME280;38015;50.924;11.598;2023-03-01T05:08:41;100614.97;;;21.60;22.76
51999;BME280;38015;50.924;11.598;2023-03-01T05:11:12;100616.32;;;21.68;22.65
51999;BME280;38015;50.924;11.598;2023-03-01T05:13:42;100616.21;;;21.67;22.63
51999;BME280;38015;50.924;11.598;2023-03-01T05:16:13;100613.96;;;21.72;22.56
51999;BME280;38015;50.924;11.598;2023-03-01T05:18:43;100608.24;;;21.71;22.55
51999;BME280;38015;50.924;11.598;2023-03-01T05:21:14;100613.18;;;21.66;22.64
51999;BME280;38015;50.924;11.598;2023-03-01T05:23:45;100613.62;;;21.66;22.58
51999;BME280;38015;50.924;11.598;2023-03-01T05:26:16;100614.73;;;21.67;22.59
51999;BME280;38015;50.924;11.598;2023-03-01T05:28:45;100617.63;;;21.74;22.45
51999;BME280;38015;50.924;11.598;2023-03-01T05:31:15;100616.07;;;21.65;22.60
51999;BME280;38015;50.924;11.598;2023-03-01T05:33:46;100615.93;;;21.60;22.64
51999;BME280;38015;50.924;11.598;2023-03-01T05:36:16;100611.14;;;21.60;22.65
51999;BME280;38015;50.924;11.598;2023-03-01T05:38:46;100616.55;;;21.65;22.55
51999;BME280;38015;50.924;11.598;2023-03-01T05:41:16;100616.87;;;21.64;22.54
51999;BME280;38015;50.924;11.598;2023-03-01T05:43:47;100614.36;;;21.57;22.66
51999;BME280;38015;50.924;11.598;2023-03-01T05:46:19;100610.47;;;21.60;22.61
51999;BME280;38015;50.924;11.598;2023-03-01T05:48:48;100610.29;;;21.49;22.77
51999;BME280;38015;50.924;11.598;2023-03-01T05:51:18;100614.16;;;21.41;22.95
51999;BME280;38015;50.924;11.598;2023-03-01T05:53:49;100613.54;;;21.30;23.09
51999;BME280;38015;50.924;11.598;2023-03-01T05:56:19;100610.36;;;21.51;22.75
51999;BME280;38015;50.924;11.598;2023-03-01T05:58:49;100613.25;;;21.45;22.84
51999;BME280;38015;50.924;11.598;2023-03-01T06:01:20;100619.73;;;21.40;22.91
51999;BME280;38015;50.924;11.598;2023-03-01T06:03:50;100617.74;;;21.55;22.68
51999;BME280;38015;50.924;11.598;2023-03-01T06:06:21;100618.77;;;21.46;22.82
51999;BME280;38015;50.924;11.598;2023-03-01T06:08:52;100620.95;;;21.48;22.79
51999;BME280;38015;50.924;11.598;2023-03-01T06:11:22;100616.59;;;21.59;22.57
51999;BME280;38015;50.924;11.598;2023-03-01T06:13:52;100616.15;;;21.59;22.60
51999;BME280;38015;50.924;11.598;2023-03-01T06:16:23;100620.97;;;21.61;22.54
51999;BME280;38015;50.924;11.598;2023-03-01T06:18:53;100623.44;;;21.61;22.55
51999;BME280;38015;50.924;11.598;2023-03-01T06:21:24;100623.95;;;21.63;22.48
51999;BME280;38015;50.924;11.598;2023-03-01T06:23:54;100622.10;;;21.59;22.51
51999;BME280;38015;50.924;11.598;2023-03-01T06:26:24;100623.69;;;21.60;22.52
51999;BME280;38015;50.924;11.598;2023-03-01T06:28:55;100625.51;;;21.58;22.54
51999;BME280;38015;50.924;11.598;2023-03-01T06:31:25;100622.98;;;21.53;22.60
51999;BME280;38015;50.924;11.598;2023-03-01T06:33:56;100626.15;;;21.54;22.58
51999;BME280;38015;50.924;11.598;2023-03-01T06:36:26;100625.85;;;21.57;22.52
51999;BME280;38015;50.924;11.598;2023-03-01T06:38:57;100624.01;;;21.57;22.53
51999;BME280;38015;50.924;11.598;2023-03-01T06:41:29;100626.92;;;21.60;22.48
51999;BME280;38015;50.924;11.598;2023-03-01T06:43:58;100633.74;;;21.60;22.46
51999;BME280;38015;50.924;11.598;2023-03-01T06:46:29;100630.73;;;21.67;22.35
51999;BME280;38015;50.924;11.598;2023-03-01T06:48:59;100625.96;;;21.50;22.56
51999;BME280;38015;50.924;11.598;2023-03-01T06:51:29;100618.63;;;21.56;22.49
51999;BME280;38015;50.924;11.598;2023-03-01T06:54:00;100619.52;;;21.68;22.32
51999;BME280;38015;50.924;11.598;2023-03-01T06:56:31;100617.86;;;21.46;22.68
51999;BME280;38015;50.924;11.598;2023-03-01T06:59:01;100624.65;;;21.41;22.72
51999;BME280;38015;50.924;11.598;2023-03-01T07:01:31;100627.29;;;21.47;22.63
51999;BME280;38015;50.924;11.598;2023-03-01T07:04:01;100622.21;;;21.54;22.52
51999;BME280;38015;50.924;11.598;2023-03-01T07:06:32;100622.94;;;21.56;22.48
51999;BME280;38015;50.924;11.598;2023-03-01T07:09:02;100621.25;;;21.48;22.61
51999;BME280;38015;50.924;11.598;2023-03-01T07:11:33;100616.57;;;21.59;22.47
51999;BME280;38015;50.924;11.598;2023-03-01T07:14:03;100615.37;;;21.37;22.78
51999;BME280;38015;50.924;11.598;2023-03-01T07:16:35;100613.22;;;21.48;22.63
51999;BME280;38015;50.924;11.598;2023-03-01T07:19:04;100613.52;;;21.65;22.15
51999;BME280;38015;50.924;11.598;2023-03-01T07:21:35;100615.81;;;21.51;22.86
51999;BME280;38015;50.924;11.598;2023-03-01T07:24:07;100617.11;;;21.71;23.55
51999;BME280;38015;50.924;11.598;2023-03-01T07:26:37;100616.60;;;21.84;24.05
51999;BME280;38015;50.924;11.598;2023-03-01T07:29:10;100615.59;;;21.73;24.48
51999;BME280;38015;50.924;11.598;2023-03-01T07:31:37;100610.99;;;21.86;24.31
51999;BME280;38015;50.924;11.598;2023-03-01T07:34:08;100613.78;;;21.38;25.42
51999;BME280;38015;50.924;11.598;2023-03-01T07:36:37;100617.96;;;21.77;24.81
51999;BME280;38015;50.924;11.598;2023-03-01T07:39:08;100621.21;;;21.97;24.57
51999;BME280;38015;50.924;11.598;2023-03-01T07:41:38;100616.43;;;22.05;24.51
51999;BME280;38015;50.924;11.598;2023-03-01T07:44:08;100619.55;;;22.05;24.54
51999;BME280;38015;50.924;11.598;2023-03-01T07:46:39;100617.74;;;22.10;24.38
51999;BME280;38015;50.924;11.598;2023-03-01T07:49:10;100620.83;;;22.15;24.37
51999;BME280;38015;50.924;11.598;2023-03-01T07:51:39;100618.78;;;22.23;24.34
51999;BME280;38015;50.924;11.598;2023-03-01T07:54:10;100621.87;;;21.85;25.09
51999;BME280;38015;50.924;11.598;2023-03-01T07:56:40;100618.96;;;22.19;24.88
51999;BME280;38015;50.924;11.598;2023-03-01T07:59:11;100620.54;;;22.28;24.85
51999;BME280;38015;50.924;11.598;2023-03-01T08:01:41;100621.44;;;22.31;24.75
51999;BME280;38015;50.924;11.598;2023-03-01T08:04:12;100616.29;;;22.22;24.82
51999;BME280;38015;50.924;11.598;2023-03-01T08:06:42;100615.99;;;22.44;24.53
51999;BME280;38015;50.924;11.598;2023-03-01T08:09:12;100612.49;;;22.47;24.71
51999;BME280;38015;50.924;11.598;2023-03-01T08:11:43;100609.92;;;22.16;25.36
51999;BME280;38015;50.924;11.598;2023-03-01T08:14:13;100605.96;;;22.31;25.27
51999;BME280;38015;50.924;11.598;2023-03-01T08:16:43;100607.94;;;22.42;25.15
51999;BME280;38015;50.924;11.598;2023-03-01T08:19:14;100605.85;;;22.68;24.60
51999;BME280;38015;50.924;11.598;2023-03-01T08:21:45;100603.62;;;22.34;25.17
51999;BME280;38015;50.924;11.598;2023-03-01T08:24:16;100600.53;;;22.23;25.47
51999;BME280;38015;50.924;11.598;2023-03-01T08:26:46;100596.82;;;22.37;25.31
51999;BME280;38015;50.924;11.598;2023-03-01T08:29:16;100597.04;;;22.41;25.27
51999;BME280;38015;50.924;11.598;2023-03-01T08:31:47;100596.71;;;22.39;25.29
51999;BME280;38015;50.924;11.598;2023-03-01T08:34:18;100591.55;;;22.42;25.23
51999;BME280;38015;50.924;11.598;2023-03-01T08:36:48;100592.22;;;22.29;25.49
51999;BME280;38015;50.924;11.598;2023-03-01T08:39:19;100593.76;;;22.42;25.28
51999;BME280;38015;50.924;11.598;2023-03-01T08:41:49;100590.18;;;21.83;25.83
51999;BME280;38015;50.924;11.598;2023-03-01T08:44:19;100590.79;;;22.56;24.26
51999;BME280;38015;50.924;11.598;2023-03-01T08:46:50;100589.50;;;22.63;24.19
51999;BME280;38015;50.924;11.598;2023-03-01T08:49:20;100585.37;;;22.66;24.00
51999;BME280;38015;50.924;11.598;2023-03-01T08:51:51;100583.80;;;22.71;23.98
51999;BME280;38015;50.924;11.598;2023-03-01T08:54:22;100583.65;;;22.55;24.21
51999;BME280;38015;50.924;11.598;2023-03-01T08:56:51;100578.03;;;22.87;23.70
51999;BME280;38015;50.924;11.598;2023-03-01T08:59:22;100577.65;;;22.97;23.49
51999;BME280;38015;50.924;11.598;2023-03-01T09:01:51;100575.71;;;22.93;23.51
51999;BME280;38015;50.924;11.598;2023-03-01T09:04:22;100571.09;;;22.89;23.54
51999;BME280;38015;50.924;11.598;2023-03-01T09:06:52;100563.04;;;22.92;23.52
51999;BME280;38015;50.924;11.598;2023-03-01T09:09:23;100561.21;;;22.79;23.68
51999;BME280;38015;50.924;11.598;2023-03-01T09:11:54;100555.67;;;22.77;23.70
51999;BME280;38015;50.924;11.598;2023-03-01T09:14:24;100551.96;;;22.60;24.00
51999;BME280;38015;50.924;11.598;2023-03-01T09:16:55;100548.66;;;22.65;23.94
51999;BME280;38015;50.924;11.598;2023-03-01T09:19:25;100550.02;;;22.42;24.20
51999;BME280;38015;50.924;11.598;2023-03-01T09:21:56;100546.03;;;22.46;24.14
51999;BME280;38015;50.924;11.598;2023-03-01T09:24:27;100544.35;;;22.68;23.77
51999;BME280;38015;50.924;11.598;2023-03-01T09:26:57;100544.70;;;22.64;23.89
51999;BME280;38015;50.924;11.598;2023-03-01T09:29:28;100547.47;;;22.72;23.67
51999;BME280;38015;50.924;11.598;2023-03-01T09:31:58;100541.71;;;22.65;23.81
51999;BME280;38015;50.924;11.598;2023-03-01T09:34:29;100544.47;;;22.67;23.81
51999;BME280;38015;50.924;11.598;2023-03-01T09:36:59;100543.87;;;22.74;23.09
51999;BME280;38015;50.924;11.598;2023-03-01T09:39:30;100542.96;;;22.84;22.96
51999;BME280;38015;50.924;11.598;2023-03-01T09:42:02;100539.12;;;22.87;22.86
51999;BME280;38015;50.924;11.598;2023-03-01T09:44:38;100537.12;;;22.86;22.94
51999;BME280;38015;50.924;11.598;2023-03-01T09:47:02;100535.45;;;23.00;22.74
51999;BME280;38015;50.924;11.598;2023-03-01T09:49:33;100538.26;;;22.95;22.66
51999;BME280;38015;50.924;11.598;2023-03-01T09:52:12;100537.04;;;23.06;22.12
51999;BME280;38015;50.924;11.598;2023-03-01T09:54:32;100533.66;;;23.01;22.56
51999;BME280;38015;50.924;11.598;2023-03-01T09:59:47;100535.62;;;23.08;21.49
51999;BME280;38015;50.924;11.598;2023-03-01T10:02:14;100537.77;;;22.95;22.05
51999;BME280;38015;50.924;11.598;2023-03-01T10:04:44;100539.53;;;22.99;22.16
51999;BME280;38015;50.924;11.598;2023-03-01T10:07:20;100540.06;;;22.99;22.59
51999;BME280;38015;50.924;11.598;2023-03-01T10:09:37;100536.16;;;22.86;22.43
51999;BME280;38015;50.924;11.598;2023-03-01T10:12:11;100531.36;;;22.75;22.71
51999;BME280;38015;50.924;11.598;2023-03-01T10:14:38;100536.63;;;22.94;22.45
51999;BME280;38015;50.924;11.598;2023-03-01T10:17:12;100531.40;;;22.98;19.43
51999;BME280;38015;50.924;11.598;2023-03-01T10:19:39;100529.96;;;23.16;16.86
51999;BME280;38015;50.924;11.598;2023-03-01T10:22:14;100524.02;;;23.05;17.44
51999;BME280;38015;50.924;11.598;2023-03-01T10:24:37;100518.68;;;23.01;16.97
51999;BME280;38015;50.924;11.598;2023-03-01T10:27:13;100519.36;;;22.76;18.23
51999;BME280;38015;50.924;11.598;2023-03-01T10:29:42;100514.45;;;22.53;16.70
51999;BME280;38015;50.924;11.598;2023-03-01T10:32:10;100508.94;;;22.84;17.87
51999;BME280;38015;50.924;11.598;2023-03-01T10:34:39;100505.65;;;22.55;18.37
51999;BME280;38015;50.924;11.598;2023-03-01T10:37:12;100503.72;;;22.80;18.82
51999;BME280;38015;50.924;11.598;2023-03-01T10:42:22;100494.49;;;22.85;18.76
51999;BME280;38015;50.924;11.598;2023-03-01T10:44:44;100493.84;;;22.80;19.10
51999;BME280;38015;50.924;11.598;2023-03-01T10:47:15;100490.48;;;22.77;19.26
51999;BME280;38015;50.924;11.598;2023-03-01T10:49:52;100489.89;;;22.78;19.26
51999;BME280;38015;50.924;11.598;2023-03-01T10:52:22;100489.31;;;22.70;19.59
51999;BME280;38015;50.924;11.598;2023-03-01T10:54:52;100483.06;;;22.37;20.22
51999;BME280;38015;50.924;11.598;2023-03-01T10:59:44;100483.34;;;22.31;20.94
51999;BME280;38015;50.924;11.598;2023-03-01T11:02:20;100479.12;;;22.48;20.99
51999;BME280;38015;50.924;11.598;2023-03-01T11:04:58;100478.30;;;22.53;21.17
51999;BME280;38015;50.924;11.598;2023-03-01T11:07:15;100477.92;;;22.79;21.10
51999;BME280;38015;50.924;11.598;2023-03-01T11:09:45;100476.57;;;22.49;21.83
51999;BME280;38015;50.924;11.598;2023-03-01T11:12:17;100469.79;;;22.78;21.65
51999;BME280;38015;50.924;11.598;2023-03-01T11:14:49;100471.53;;;22.60;22.09
51999;BME280;38015;50.924;11.598;2023-03-01T11:17:22;100466.95;;;23.00;21.69
51999;BME280;38015;50.924;11.598;2023-03-01T11:22:20;100467.35;;;23.05;21.90
51999;BME280;38015;50.924;11.598;2023-03-01T11:24:49;100469.31;;;23.07;22.05
51999;BME280;38015;50.924;11.598;2023-03-01T11:27:20;100471.54;;;23.08;22.11
51999;BME280;38015;50.924;11.598;2023-03-01T11:29:54;100470.83;;;23.13;22.09
51999;BME280;38015;50.924;11.598;2023-03-01T11:32:19;100473.57;;;23.16;22.31
51999;BME280;38015;50.924;11.598;2023-03-01T11:34:55;100468.08;;;23.21;22.32
51999;BME280;38015;50.924;11.598;2023-03-01T11:37:30;100466.75;;;23.23;22.32
51999;BME280;38015;50.924;11.598;2023-03-01T11:39:57;100466.41;;;23.22;22.37
51999;BME280;38015;50.924;11.598;2023-03-01T11:42:29;100463.11;;;23.23;21.64
51999;BME280;38015;50.924;11.598;2023-03-01T11:44:55;100459.26;;;23.23;22.06
51999;BME280;38015;50.924;11.598;2023-03-01T11:47:33;100455.24;;;23.16;22.36
51999;BME280;38015;50.924;11.598;2023-03-01T11:50:03;100449.02;;;23.12;22.45
51999;BME280;38015;50.924;11.598;2023-03-01T11:52:30;100449.10;;;23.02;22.94
51999;BME280;38015;50.924;11.598;2023-03-01T11:57:37;100445.14;;;23.25;22.82
51999;BME280;38015;50.924;11.598;2023-03-01T12:05:05;100433.58;;;23.12;23.43
51999;BME280;38015;50.924;11.598;2023-03-01T12:07:32;100429.35;;;22.94;23.98
51999;BME280;38015;50.924;11.598;2023-03-01T12:12:33;100424.79;;;22.90;24.24
51999;BME280;38015;50.924;11.598;2023-03-01T12:17:41;100418.47;;;23.09;24.14
51999;BME280;38015;50.924;11.598;2023-03-01T12:20:14;100412.46;;;23.34;23.92
51999;BME280;38015;50.924;11.598;2023-03-01T12:22:31;100411.26;;;23.16;23.92
51999;BME280;38015;50.924;11.598;2023-03-01T12:25:05;100405.36;;;23.28;24.14
51999;BME280;38015;50.924;11.598;2023-03-01T12:27:41;100411.29;;;23.17;23.93
51999;BME280;38015;50.924;11.598;2023-03-01T12:30:09;100405.51;;;23.10;24.49
51999;BME280;38015;50.924;11.598;2023-03-01T12:32:43;100408.62;;;23.25;24.32
51999;BME280;38015;50.924;11.598;2023-03-01T12:37:38;100401.88;;;23.32;24.32
51999;BME280;38015;50.924;11.598;2023-03-01T12:40:15;100400.53;;;23.36;23.94
51999;BME280;38015;50.924;11.598;2023-03-01T12:42:37;100402.70;;;23.14;24.48
51999;BME280;38015;50.924;11.598;2023-03-01T12:45:20;100396.60;;;23.22;24.11
51999;BME280;38015;50.924;11.598;2023-03-01T12:50:04;100390.11;;;23.31;24.51
51999;BME280;38015;50.924;11.598;2023-03-01T12:52:38;100382.56;;;23.37;24.22
51999;BME280;38015;50.924;11.598;2023-03-01T12:57:40;100379.18;;;23.33;24.65
51999;BME280;38015;50.924;11.598;2023-03-01T13:02:41;100369.04;;;23.33;24.95
51999;BME280;38015;50.924;11.598;2023-03-01T13:05:18;100368.47;;;23.27;25.01
51999;BME280;38015;50.924;11.598;2023-03-01T13:07:38;100368.81;;;23.18;25.31
51999;BME280;38015;50.924;11.598;2023-03-01T13:10:17;100369.17;;;23.33;25.30
51999;BME280;38015;50.924;11.598;2023-03-01T13:12:42;100373.79;;;23.15;25.82
51999;BME280;38015;50.924;11.598;2023-03-01T13:17:43;100374.90;;;23.17;25.41
51999;BME280;38015;50.924;11.598;2023-03-01T13:20:13;100373.13;;;22.72;26.11
51999;BME280;38015;50.924;11.598;2023-03-01T13:22:38;100371.21;;;23.20;25.16
51999;BME280;38015;50.924;11.598;2023-03-01T13:25:15;100371.80;;;23.29;24.99
51999;BME280;38015;50.924;11.598;2023-03-01T13:27:39;100362.22;;;23.45;24.32
51999;BME280;38015;50.924;11.598;2023-03-01T13:32:41;100366.97;;;23.40;24.52